createdAt,value
2018-01-29T00:00:03.931Z,70.00
2018-01-29T00:02:32.207Z,70.10
2018-01-29T00:04:59.707Z,70.10
2018-01-29T00:07:27.211Z,69.40
2018-01-29T00:09:54.707Z,69.60
2018-01-29T00:12:22.207Z,69.40
2018-01-29T00:14:49.698Z,69.40
2018-01-29T00:17:17.206Z,69.50
2018-01-29T00:19:44.702Z,69.60
2018-01-29T00:22:12.194Z,69.50
2018-01-29T00:24:39.698Z,69.70
2018-01-29T00:27:07.191Z,69.80
2018-01-29T00:29:35.457Z,70.40
2018-01-29T00:32:02.960Z,70.00
2018-01-29T00:34:30.468Z,70.00
2018-01-29T00:36:57.966Z,69.90
2018-01-29T00:39:25.471Z,70.30
2018-01-29T00:41:52.967Z,70.00
2018-01-29T00:44:21.238Z,70.10
2018-01-29T00:46:49.500Z,69.90
2018-01-29T00:49:17.006Z,69.90
2018-01-29T00:51:44.499Z,70.00
2018-01-29T00:54:11.998Z,69.90
2018-01-29T00:56:40.259Z,70.00
2018-01-29T00:59:07.764Z,70.00
2018-01-29T01:01:35.266Z,69.60
2018-01-29T01:04:03.006Z,69.60
2018-01-29T01:06:30.514Z,69.60
2018-01-29T01:08:58.766Z,69.30
2018-01-29T01:11:26.254Z,69.20
2018-01-29T01:13:53.756Z,69.40
2018-01-29T01:16:21.250Z,69.00
2018-01-29T01:18:49.506Z,69.60
2018-01-29T01:21:17.195Z,69.40
2018-01-29T01:23:45.451Z,69.50
2018-01-29T01:26:12.947Z,69.40
2018-01-29T01:28:40.455Z,69.60
2018-01-29T01:31:07.950Z,69.80
2018-01-29T01:33:36.434Z,70.10
2018-01-29T01:36:04.690Z,70.00
2018-01-29T01:38:32.201Z,70.00
2018-01-29T01:40:59.695Z,70.70
2018-01-29T01:43:27.203Z,70.20
2018-01-29T01:45:54.697Z,70.00
2018-01-29T01:48:22.190Z,70.60
2018-01-29T01:50:50.458Z,70.40
2018-01-29T01:53:17.956Z,70.40
2018-01-29T01:55:45.459Z,70.60
2018-01-29T01:58:12.951Z,70.40
2018-01-29T02:00:41.210Z,70.00
2018-01-29T02:03:09.481Z,70.10
2018-01-29T02:05:36.980Z,69.90
2018-01-29T02:08:04.498Z,69.50
2018-01-29T02:10:32.778Z,69.00
2018-01-29T02:13:00.290Z,69.30
2018-01-29T02:15:27.782Z,69.50
2018-01-29T02:17:55.275Z,69.30
2018-01-29T02:20:23.530Z,68.50
2018-01-29T02:22:51.207Z,68.50
2018-01-29T02:25:19.475Z,68.30
2018-01-29T02:27:47.732Z,67.90
2018-01-29T02:30:15.418Z,67.90
2018-01-29T02:32:43.700Z,68.00
2018-01-29T02:35:11.955Z,68.10
2018-01-29T02:37:39.453Z,68.00
2018-01-29T02:40:06.946Z,68.20
2018-01-29T02:42:34.434Z,68.00
2018-01-29T02:45:02.701Z,68.20
2018-01-29T02:47:30.190Z,67.90
2018-01-29T02:49:57.697Z,67.30
2018-01-29T02:52:25.195Z,67.20
2018-01-29T02:54:53.467Z,67.30
2018-01-29T02:57:21.730Z,67.70
2018-01-29T02:59:50.114Z,67.50
2018-01-29T03:02:17.615Z,67.40
2018-01-29T03:04:45.113Z,68.00
2018-01-29T03:07:12.599Z,67.60
2018-01-29T03:09:40.875Z,68.20
2018-01-29T03:12:09.126Z,68.00
2018-01-29T03:14:36.629Z,68.00
2018-01-29T03:17:04.272Z,67.70
2018-01-29T03:19:32.530Z,67.90
2018-01-29T03:22:00.039Z,67.90
2018-01-29T03:24:27.662Z,67.70
2018-01-29T03:26:55.922Z,68.00
2018-01-29T03:29:23.410Z,67.20
2018-01-29T03:31:50.905Z,67.20
2018-01-29T03:34:18.406Z,67.20
2018-01-29T03:36:45.891Z,67.10
2018-01-29T03:39:13.395Z,67.90
2018-01-29T03:41:40.890Z,67.70
2018-01-29T03:44:09.163Z,68.00
2018-01-29T03:46:37.550Z,67.70
2018-01-29T03:49:05.810Z,68.00
2018-01-29T03:51:33.318Z,68.00
2018-01-29T03:54:00.938Z,68.10
2018-01-29T03:56:29.202Z,68.50
2018-01-29T03:58:56.976Z,68.50
2018-01-29T04:01:25.254Z,68.00
2018-01-29T04:03:53.737Z,68.10
2018-01-29T04:06:22.114Z,68.50
2018-01-29T04:08:50.378Z,68.00
2018-01-29T04:11:17.867Z,68.00
2018-01-29T04:13:45.374Z,68.40
2018-01-29T04:16:12.871Z,68.40
2018-01-29T04:18:41.138Z,68.20
2018-01-29T04:21:09.398Z,68.30
2018-01-29T04:23:37.666Z,68.20
2018-01-29T04:26:05.163Z,68.20
2018-01-29T04:28:33.419Z,68.30
2018-01-29T04:31:00.928Z,68.30
2018-01-29T04:33:28.446Z,68.20
2018-01-29T04:35:56.705Z,67.90
2018-01-29T04:38:24.219Z,67.90
2018-01-29T04:40:51.711Z,67.90
2018-01-29T04:43:19.211Z,68.10
2018-01-29T04:46:01.595Z,68.20
2018-01-29T04:48:29.106Z,68.20
2018-01-29T04:50:56.594Z,69.00
2018-01-29T04:53:24.086Z,69.10
2018-01-29T04:55:51.582Z,69.00
2018-01-29T04:58:19.201Z,69.10
2018-01-29T05:00:47.478Z,69.50
2018-01-29T05:03:15.743Z,69.10
2018-01-29T05:05:44.000Z,69.60
2018-01-29T05:08:11.496Z,69.30
2018-01-29T05:10:38.990Z,69.40
2018-01-29T05:13:06.484Z,69.30
2018-01-29T05:15:33.991Z,69.00
2018-01-29T05:18:01.484Z,69.00
2018-01-29T05:20:28.990Z,69.10
2018-01-29T05:22:56.496Z,68.60
2018-01-29T05:25:24.020Z,69.80
2018-01-29T05:27:51.524Z,69.00
2018-01-29T05:30:19.026Z,69.10
2018-01-29T05:32:46.543Z,69.10
2018-01-29T05:35:16.538Z,68.90
2018-01-29T05:51:05.814Z,69.90
2018-01-29T05:53:33.503Z,69.80
2018-01-29T06:09:03.439Z,68.50
2018-01-29T06:11:31.192Z,68.80
2018-01-29T06:13:58.687Z,68.80
2018-01-29T06:16:26.190Z,68.80
2018-01-29T06:18:54.455Z,69.30
2018-01-29T06:21:22.734Z,69.40
2018-01-29T06:23:51.005Z,69.80
2018-01-29T06:26:19.283Z,69.50
2018-01-29T06:28:47.542Z,69.30
2018-01-29T06:31:15.154Z,69.30
2018-01-29T06:33:42.654Z,69.50
2018-01-29T06:36:10.142Z,69.50
2018-01-29T06:38:38.422Z,69.10
2018-01-29T06:41:06.678Z,69.30
2018-01-29T06:43:34.179Z,69.30
2018-01-29T06:46:01.679Z,69.70
2018-01-29T06:48:29.372Z,69.30
2018-01-29T06:50:57.644Z,69.00
2018-01-29T06:53:25.922Z,69.00
2018-01-29T06:55:54.199Z,69.00
2018-01-29T06:58:22.566Z,68.90
2018-01-29T07:00:50.066Z,68.90
2018-01-29T07:03:17.566Z,69.30
2018-01-29T07:05:45.084Z,69.30
2018-01-29T07:08:12.582Z,69.40
2018-01-29T07:10:40.083Z,69.70
2018-01-29T07:13:07.587Z,69.80
2018-01-29T07:15:35.098Z,68.90
2018-01-29T07:18:02.639Z,68.80
2018-01-29T07:20:30.151Z,69.30
2018-01-29T07:22:57.715Z,69.40
2018-01-29T07:25:25.214Z,69.10
2018-01-29T07:27:53.495Z,69.40
2018-01-29T07:30:21.982Z,68.90
2018-01-29T07:32:50.242Z,68.70
2018-01-29T07:35:17.735Z,68.70
2018-01-29T07:37:45.234Z,69.70
2018-01-29T07:40:12.742Z,69.40
2018-01-29T07:42:40.248Z,69.40
2018-01-29T07:45:07.767Z,69.10
2018-01-29T07:47:35.286Z,69.20
2018-01-29T07:50:02.790Z,69.30
2018-01-29T07:52:30.293Z,68.90
2018-01-29T07:54:57.799Z,69.10
2018-01-29T07:57:25.322Z,69.10
2018-01-29T07:59:52.835Z,69.50
2018-01-29T08:02:20.344Z,69.60
2018-01-29T08:04:47.843Z,69.30
2018-01-29T08:07:15.346Z,69.40
2018-01-29T08:09:42.859Z,69.10
2018-01-29T08:12:10.388Z,68.90
2018-01-29T08:14:38.660Z,68.50
2018-01-29T08:17:07.151Z,68.30
2018-01-29T08:19:35.419Z,68.30
2018-01-29T08:22:03.705Z,68.50
2018-01-29T08:24:31.972Z,68.30
2018-01-29T08:27:00.248Z,68.70
2018-01-29T08:29:28.654Z,68.40
2018-01-29T08:31:56.160Z,68.40
2018-01-29T08:34:24.445Z,69.60
2018-01-29T08:36:52.729Z,68.80
2018-01-29T08:39:20.237Z,68.80
2018-01-29T08:41:47.739Z,70.10
2018-01-29T08:44:15.367Z,69.10
2018-01-29T08:46:42.882Z,69.30
2018-01-29T08:49:11.371Z,69.80
2018-01-29T08:51:38.888Z,69.70
2018-01-29T08:54:06.394Z,70.30
2018-01-29T08:56:33.921Z,70.40
2018-01-29T08:59:01.426Z,70.20
2018-01-29T09:01:28.936Z,71.00
2018-01-29T09:03:56.441Z,70.20
2018-01-29T09:06:23.967Z,69.90
2018-01-29T09:08:52.239Z,70.00
2018-01-29T09:11:20.508Z,70.20
2018-01-29T09:13:48.023Z,70.00
2018-01-29T09:16:15.527Z,71.40
2018-01-29T09:18:43.813Z,71.20
2018-01-29T09:21:12.096Z,70.20
2018-01-29T09:23:40.366Z,70.50
2018-01-29T09:26:08.640Z,70.30
2018-01-29T09:28:36.916Z,70.60
2018-01-29T09:31:05.213Z,70.40
2018-01-29T09:33:32.716Z,70.40
2018-01-29T09:36:00.235Z,70.40
2018-01-29T09:38:27.735Z,69.50
2018-01-29T09:40:55.447Z,68.30
2018-01-29T09:43:22.972Z,68.60
2018-01-29T09:45:51.239Z,68.10
2018-01-29T09:48:18.749Z,68.00
2018-01-29T09:50:46.267Z,67.80
2018-01-29T09:53:13.775Z,67.90
2018-01-29T09:55:41.288Z,66.90
2018-01-29T09:58:08.792Z,67.00
2018-01-29T10:00:36.312Z,67.00
2018-01-29T10:03:04.588Z,66.50
2018-01-29T10:05:32.863Z,65.70
2018-01-29T10:08:01.123Z,64.90
2018-01-29T10:10:28.637Z,64.90
2018-01-29T10:12:56.147Z,65.20
2018-01-29T10:15:23.663Z,65.30
2018-01-29T10:17:51.165Z,65.10
2018-01-29T10:20:19.431Z,64.80
2018-01-29T10:22:46.927Z,65.00
2018-01-29T10:25:14.445Z,65.10
2018-01-29T10:27:44.475Z,65.80
2018-01-29T10:30:13.486Z,65.30
2018-01-29T10:32:41.755Z,65.80
2018-01-29T10:35:10.027Z,65.40
2018-01-29T10:37:37.536Z,65.30
2018-01-29T10:40:05.088Z,65.50
2018-01-29T10:42:32.623Z,64.80
2018-01-29T10:45:00.119Z,65.40
2018-01-29T10:47:27.623Z,64.30
2018-01-29T10:49:55.912Z,64.30
2018-01-29T10:52:24.242Z,64.10
2018-01-29T10:54:51.742Z,64.10
2018-01-29T10:57:20.015Z,64.10
2018-01-29T10:59:48.282Z,64.40
2018-01-29T11:02:15.800Z,64.30
2018-01-29T11:04:43.314Z,63.90
2018-01-29T11:07:11.578Z,62.30
2018-01-29T11:09:39.853Z,62.20
2018-01-29T11:12:08.138Z,62.10
2018-01-29T11:14:36.402Z,62.30
2018-01-29T11:17:03.917Z,62.20
2018-01-29T11:19:31.426Z,62.20
2018-01-29T11:21:59.705Z,61.20
2018-01-29T11:24:27.979Z,61.00
2018-01-29T11:26:56.254Z,61.10
2018-01-29T11:29:24.518Z,61.30
2018-01-29T11:31:52.934Z,61.20
2018-01-29T11:34:20.438Z,61.10
2018-01-29T11:36:47.938Z,59.90
2018-01-29T11:39:16.210Z,59.90
2018-01-29T11:41:44.535Z,60.10
2018-01-29T11:44:12.041Z,60.10
2018-01-29T11:46:40.311Z,58.90
2018-01-29T11:49:08.587Z,58.90
2018-01-29T11:51:36.088Z,58.90
2018-01-29T11:54:03.598Z,58.60
2018-01-29T11:56:31.100Z,58.00
2018-01-29T11:58:58.839Z,58.40
2018-01-29T12:01:27.119Z,57.90
2018-01-29T12:03:55.410Z,57.20
2018-01-29T12:06:22.918Z,57.20
2018-01-29T12:08:50.415Z,56.60
2018-01-29T12:11:18.680Z,56.50
2018-01-29T12:13:46.955Z,56.10
2018-01-29T12:16:15.230Z,56.20
2018-01-29T12:18:43.519Z,56.00
2018-01-29T12:21:11.778Z,55.70
2018-01-29T12:23:39.279Z,55.70
2018-01-29T12:26:06.775Z,55.00
2018-01-29T12:28:34.274Z,55.20
2018-01-29T12:31:02.606Z,55.50
2018-01-29T12:33:30.107Z,55.20
2018-01-29T12:35:58.366Z,54.30
2018-01-29T12:38:27.655Z,53.60
2018-01-29T12:40:55.166Z,53.60
2018-01-29T12:43:22.663Z,53.70
2018-01-29T12:45:50.155Z,53.40
2018-01-29T12:48:18.431Z,53.00
2018-01-29T12:50:46.759Z,53.10
2018-01-29T12:53:14.278Z,53.10
2018-01-29T12:55:41.778Z,51.80
2018-01-29T12:58:09.270Z,51.90
2018-01-29T13:00:37.543Z,51.90
2018-01-29T13:03:05.816Z,52.10
2018-01-29T13:05:33.322Z,52.10
2018-01-29T13:08:00.844Z,51.40
2018-01-29T13:10:29.104Z,50.60
2018-01-29T13:12:56.599Z,50.60
2018-01-29T13:15:24.099Z,51.00
2018-01-29T13:17:51.591Z,50.20
2018-01-29T13:20:19.850Z,48.80
2018-01-29T13:22:47.354Z,48.70
2018-01-29T13:25:14.851Z,47.70
2018-01-29T13:27:42.347Z,47.40
2018-01-29T13:30:10.659Z,45.80
2018-01-29T13:32:38.154Z,45.60
2018-01-29T13:35:05.671Z,44.90
2018-01-29T13:37:33.166Z,43.90
2018-01-29T13:40:00.675Z,43.30
2018-01-29T13:42:28.166Z,39.80
2018-01-29T13:44:55.654Z,38.40
2018-01-29T13:47:23.925Z,36.60
2018-01-29T13:49:52.940Z,34.90
2018-01-29T13:52:21.202Z,34.20
2018-01-29T13:54:48.694Z,34.10
2018-01-29T13:57:16.202Z,32.90
2018-01-29T13:59:43.715Z,29.70
2018-01-29T14:02:11.264Z,29.70
2018-01-29T14:04:39.519Z,29.70
2018-01-29T14:07:07.031Z,30.20
2018-01-29T14:09:34.523Z,29.70
2018-01-29T14:12:02.028Z,28.90
2018-01-29T14:14:29.532Z,29.00
2018-01-29T14:16:57.031Z,27.80
2018-01-29T14:19:25.304Z,27.70
2018-01-29T14:21:53.562Z,29.10
2018-01-29T14:24:21.079Z,29.10
2018-01-29T14:26:48.613Z,29.20
2018-01-29T14:29:16.126Z,29.60
2018-01-29T14:31:44.383Z,34.10
2018-01-29T14:34:11.887Z,34.10
2018-01-29T14:36:40.146Z,39.20
2018-01-29T14:39:09.150Z,42.30
2018-01-29T14:41:37.439Z,44.20
2018-01-29T14:44:05.714Z,45.90
2018-01-29T14:46:33.983Z,47.70
2018-01-29T14:49:02.247Z,49.30
2018-01-29T14:51:29.744Z,49.20
2018-01-29T14:53:57.247Z,50.10
2018-01-29T14:56:24.746Z,50.80
2018-01-29T14:58:52.271Z,51.30
2018-01-29T15:01:19.831Z,52.40
2018-01-29T15:03:47.331Z,52.90
2018-01-29T15:06:14.839Z,53.60
2018-01-29T15:08:42.377Z,53.80
2018-01-29T15:11:09.870Z,54.10
2018-01-29T15:13:37.408Z,54.60
2018-01-29T15:16:04.899Z,55.00
2018-01-29T15:18:33.158Z,56.00
2018-01-29T15:21:00.695Z,55.90
2018-01-29T15:23:28.192Z,56.60
2018-01-29T15:25:56.492Z,57.50
2018-01-29T15:28:23.990Z,57.50
2018-01-29T15:30:51.506Z,57.90
2018-01-29T15:33:19.046Z,58.20
2018-01-29T15:35:47.312Z,58.60
2018-01-29T15:38:15.575Z,58.90
2018-01-29T15:40:43.086Z,58.80
2018-01-29T15:43:10.610Z,59.00
2018-01-29T15:45:38.878Z,59.30
2018-01-29T15:48:07.142Z,59.70
2018-01-29T15:50:34.673Z,59.70
2018-01-29T15:53:02.203Z,59.70
2018-01-29T15:55:29.708Z,59.80
2018-01-29T15:57:57.227Z,59.80
2018-01-29T16:00:24.726Z,60.20
2018-01-29T16:02:52.230Z,60.40
2018-01-29T16:05:19.739Z,61.30
2018-01-29T16:07:47.248Z,61.80
2018-01-29T16:10:14.750Z,62.30
2018-01-29T16:12:42.263Z,62.60
2018-01-29T16:15:09.785Z,62.80
2018-01-29T16:17:37.296Z,63.10
2018-01-29T16:20:04.794Z,63.00
2018-01-29T16:22:32.301Z,63.10
2018-01-29T16:24:59.821Z,63.10
2018-01-29T16:27:27.323Z,62.80
2018-01-29T16:29:54.858Z,62.70
2018-01-29T16:32:23.126Z,63.50
2018-01-29T16:34:51.408Z,64.30
2018-01-29T16:37:19.686Z,63.80
2018-01-29T16:39:47.968Z,63.70
2018-01-29T16:42:16.234Z,63.60
2018-01-29T16:44:44.510Z,63.60
2018-01-29T16:47:12.782Z,63.70
2018-01-29T16:49:40.283Z,63.60
2018-01-29T16:52:07.799Z,63.40
2018-01-29T16:54:36.095Z,64.50
2018-01-29T16:57:04.374Z,64.40
2018-01-29T16:59:31.886Z,64.30
2018-01-29T17:01:59.383Z,64.60
2018-01-29T17:04:27.662Z,64.70
2018-01-29T17:06:55.934Z,65.00
2018-01-29T17:09:24.216Z,65.20
2018-01-29T17:11:52.491Z,65.40
2018-01-29T17:14:20.754Z,65.30
2018-01-29T17:16:49.036Z,65.60
2018-01-29T17:19:17.303Z,65.30
2018-01-29T17:21:45.562Z,65.30
2018-01-29T17:24:13.086Z,65.30
2018-01-29T17:26:40.598Z,65.50
2018-01-29T17:29:08.909Z,66.20
2018-01-29T17:31:36.407Z,66.20
2018-01-29T17:34:03.929Z,66.30
2018-01-29T17:36:31.424Z,66.60
2018-01-29T17:39:00.445Z,66.70
2018-01-29T17:41:28.730Z,66.50
2018-01-29T17:43:56.999Z,66.40
2018-01-29T17:46:25.272Z,66.50
2018-01-29T17:48:52.770Z,66.30
2018-01-29T17:51:20.284Z,66.50
2018-01-29T17:53:47.790Z,66.60
2018-01-29T17:56:15.283Z,66.60
2018-01-29T17:58:42.778Z,66.60
2018-01-29T18:01:11.054Z,67.00
2018-01-29T18:03:39.314Z,67.20
2018-01-29T18:06:06.865Z,67.10
2018-01-29T18:08:34.385Z,67.30
2018-01-29T18:11:01.875Z,67.10
2018-01-29T18:13:29.371Z,67.60
2018-01-29T18:15:57.649Z,68.20
2018-01-29T18:18:25.146Z,68.10
2018-01-29T18:20:52.638Z,68.20
2018-01-29T18:23:20.146Z,68.40
2018-01-29T18:25:47.663Z,68.60
2018-01-29T18:28:15.930Z,68.80
2018-01-29T18:30:43.447Z,68.80
2018-01-29T18:33:10.944Z,69.00
2018-01-29T18:35:38.458Z,69.50
2018-01-29T18:38:05.956Z,69.90
2018-01-29T18:40:33.446Z,70.10
2018-01-29T18:43:01.719Z,70.50
2018-01-29T18:45:29.979Z,70.50
2018-01-29T18:47:57.521Z,70.50
2018-01-29T18:50:25.011Z,70.60
2018-01-29T18:52:53.270Z,70.60
2018-01-29T18:55:20.762Z,70.50
2018-01-29T18:57:48.300Z,70.80
2018-01-29T19:00:16.562Z,70.80
2018-01-29T19:02:44.070Z,70.70
2018-01-29T19:05:11.566Z,71.70
2018-01-29T19:07:39.076Z,71.00
2018-01-29T19:10:06.602Z,71.20
2018-01-29T19:12:34.862Z,71.10
2018-01-29T19:15:02.382Z,71.00
2018-01-29T19:17:29.896Z,70.60
2018-01-29T19:19:58.167Z,71.50
2018-01-29T19:22:25.683Z,70.40
2018-01-29T19:24:53.186Z,71.00
2018-01-29T19:27:20.703Z,71.00
2018-01-29T19:29:48.235Z,70.20
2018-01-29T19:32:15.724Z,70.90
2018-01-29T19:34:43.234Z,70.80
2018-01-29T19:37:11.495Z,71.10
2018-01-29T19:39:39.770Z,71.30
2018-01-29T19:42:07.283Z,71.30
2018-01-29T19:44:34.778Z,71.10
2018-01-29T19:47:03.063Z,72.90
2018-01-29T19:49:31.331Z,73.30
2018-01-29T19:51:58.847Z,73.20
2018-01-29T19:54:26.341Z,73.80
2018-01-29T19:56:53.882Z,74.10
2018-01-29T19:59:21.348Z,74.10
2018-01-29T20:01:48.847Z,74.00
2018-01-29T20:04:17.130Z,74.10
2018-01-29T20:06:45.391Z,74.40
2018-01-29T20:09:13.671Z,74.30
2018-01-29T20:11:41.927Z,74.40
2018-01-29T20:14:09.460Z,74.40
2018-01-29T20:16:36.978Z,74.50
2018-01-29T20:19:05.242Z,74.70
2018-01-29T20:21:33.508Z,75.00
2018-01-29T20:24:01.019Z,75.00
2018-01-29T20:26:29.466Z,75.40
2018-01-29T20:28:57.726Z,75.40
2018-01-29T20:31:25.987Z,75.70
2018-01-29T20:33:53.498Z,75.60
2018-01-29T20:36:21.007Z,75.80
2018-01-29T20:38:48.527Z,76.00
2018-01-29T20:41:16.031Z,75.60
2018-01-29T20:43:43.551Z,75.80
2018-01-29T20:46:11.038Z,76.00
2018-01-29T20:48:38.531Z,76.30
2018-01-29T20:51:06.030Z,76.20
2018-01-29T20:53:33.548Z,75.90
2018-01-29T20:56:01.042Z,75.70
2018-01-29T20:58:28.545Z,75.80
2018-01-29T21:00:56.058Z,75.50
2018-01-29T21:03:23.555Z,75.70
2018-01-29T21:05:51.818Z,76.10
2018-01-29T21:08:20.094Z,75.10
2018-01-29T21:10:47.615Z,75.00
2018-01-29T21:13:15.118Z,75.00
2018-01-29T21:15:42.612Z,75.50
2018-01-29T21:18:10.114Z,75.90
2018-01-29T21:20:37.626Z,75.90
2018-01-29T21:23:05.126Z,75.80
2018-01-29T21:25:32.621Z,75.90
2018-01-29T21:28:00.891Z,75.80
2018-01-29T21:30:28.398Z,75.80
2018-01-29T21:32:55.890Z,76.40
2018-01-29T21:35:23.383Z,76.50
2018-01-29T21:37:51.662Z,76.70
2018-01-29T21:40:19.918Z,76.90
2018-01-29T21:42:47.410Z,76.90
2018-01-29T21:45:14.906Z,77.60
2018-01-29T21:47:42.941Z,77.00
2018-01-29T21:50:11.249Z,77.10
2018-01-29T21:52:39.586Z,78.00
2018-01-29T21:55:11.098Z,77.10
2018-01-29T21:57:38.627Z,76.80
2018-01-29T22:00:06.123Z,76.70
2018-01-29T22:02:33.630Z,76.80
2018-01-29T22:05:01.123Z,76.60
2018-01-29T22:07:28.626Z,76.30
2018-01-29T22:09:56.887Z,76.20
2018-01-29T22:12:25.151Z,76.20
2018-01-29T22:14:52.647Z,76.30
2018-01-29T22:17:20.154Z,76.10
2018-01-29T22:19:47.647Z,76.10
2018-01-29T22:22:15.906Z,75.40
2018-01-29T22:24:43.407Z,75.30
2018-01-29T22:27:10.924Z,75.40
2018-01-29T22:29:38.434Z,75.30
2018-01-29T22:32:05.926Z,75.50
2018-01-29T22:34:33.423Z,75.60
2018-01-29T22:37:00.929Z,75.50
2018-01-29T22:39:28.440Z,75.20
2018-01-29T22:41:56.707Z,75.40
2018-01-29T22:44:24.970Z,75.40
2018-01-29T22:46:52.477Z,75.40
2018-01-29T22:49:19.966Z,76.10
2018-01-29T22:51:47.478Z,76.20
2018-01-29T22:54:14.982Z,76.60
2018-01-29T22:56:42.479Z,76.90
2018-01-29T22:59:10.748Z,77.00
2018-01-29T23:01:39.002Z,76.80
2018-01-29T23:17:07.943Z,74.30
2018-01-29T23:19:35.443Z,74.00
2018-01-29T23:22:02.963Z,74.10
2018-01-29T23:24:30.459Z,73.90
2018-01-29T23:27:01.008Z,73.30
2018-01-29T23:29:28.583Z,72.80
2018-01-29T23:31:56.074Z,73.00
2018-01-29T23:34:23.563Z,72.50
2018-01-29T23:36:51.051Z,71.90
2018-01-29T23:39:18.546Z,71.80
2018-01-29T23:41:46.043Z,71.90
2018-01-29T23:44:13.540Z,71.80
2018-01-29T23:46:41.042Z,72.40
2018-01-29T23:49:08.534Z,71.60
2018-01-29T23:51:36.807Z,71.30
2018-01-29T23:54:05.063Z,71.70
2018-01-29T23:56:32.559Z,71.60
2018-01-29T23:59:00.059Z,72.20
